Ana Sayfa
METAR-TAF:

METAR-TAF

Havaalanları :

Uşak Havalimanı

Uşak, Türkiye

Enlem: 38-40N, Boylam: 029-25E, yükseklik: 919 m

Güncel hava durumu gözlemi

Rapor saat 06:50 UTC de 35 dakika önce yapıldı.
Rüzgar doğudan 16 kt
Sıcaklık 5°C
Nem 48%
Basınç 1019 hPa
Görüş mesafesi 10 km veya daha fazla
1500 m altında bulut yok ve kümülonimbus yok

METAR: LTBO 250650Z 08016KT CAVOK 05/M05 Q1019

Saat: 10:25 (07:25 UTC)

Tahmin

Rapor saat 04:40 UTC de 2 saat ve 45 dakika önce yapıldı.
Ayın 25'si saat 06 UTC'den ayın 25'si saat 15 UTC'ye kadar geçerli Tahmin
Rüzgar değişken yönden 2 kt
Görüş mesafesi 10 km veya daha fazla
1500 m altında bulut yok ve kümülonimbus yok

TAF: LTBO 250440Z 2506/2515 VRB02KT CAVOK

4.000'den fazla havaalanı için hava durumu gözlemleri ve tahminleri (METAR ve TAF raporları).

Kullanılabilir istasyonlar harita üzerinde sarı ve kırmızı noktalarla gösterilir.

İstasyonun adını görmek için fareyi noktanın üzerinde gezdirin.

Sonrasında hava gözlem ve tahminlerini görmek için tıklayın.

Haritayı değiştirmek için: yaklaştırmak için siyah artı işaretli yeşil düğmeye ve uzaklaştırmak için de eksi işaretli düğmeye hızla tıklayın; bitişik haritalar için yeşil okları kullanın.


METAR-TAF: